Time;durP1;ratioP1;P1;durP2;ratioP2;P2;SDS_P1;SDS_P2;PMS_P1;PMS_P2;Temp;Humidity;BMP_temperature;BMP_pressure;BME280_temperature;BME280_humidity;BME280_pressure;Samples;Min_cycle;Max_cycle;Signal;HPM_P1;HPM_P2
2022/04/05 00:00:57;;;;;;;;;;;;;;;10.89;38.83;98551.06;4466792;32;33801;-83
2022/04/05 00:03:25;;;;;;;;;;;;;;;11.09;38.56;98546.75;4464832;32;34189;-81
2022/04/05 00:05:53;;;;;;;;;;;;;;;10.48;39.71;98531.09;4437256;32;33669;-82
2022/04/05 00:08:20;;;;;;;;;;;;;;;10.59;39.18;98532.00;4463640;32;34020;-82
2022/04/05 00:10:47;;;;;;;;;;;;;;;10.42;39.95;98529.37;4465261;32;34317;-81
2022/04/05 00:13:15;;;;;;;;;;;;;;;10.30;39.89;98531.91;4458090;32;34574;-81
2022/04/05 00:15:42;;;;;;;;;;;;;;;10.15;40.22;98529.22;4461594;32;33621;-85
2022/04/05 00:18:10;;;;;;;;;;;;;;;10.17;40.37;98530.09;4454833;32;33872;-81
2022/04/05 00:20:37;;;;;;;;;;;;;;;10.76;39.00;98520.78;4460228;32;34381;-82
2022/04/05 00:23:04;;;;;;;;;;;;;;;10.98;38.52;98522.53;4453189;32;33555;-82
2022/04/05 00:25:31;;;;;;;;;;;;;;;10.73;39.01;98513.88;4452940;32;33441;-81
2022/04/05 00:27:59;;;;;;;;;;;;;;;10.96;38.67;98525.16;4464336;32;34000;-82
2022/04/05 00:30:26;;;;;;;;;;;;;;;11.38;37.85;98527.75;4453784;32;35430;-83
2022/04/05 00:32:53;;;;;;;;;;;;;;;11.27;38.06;98530.34;4462713;32;34306;-83
2022/04/05 00:35:21;;;;;;;;;;;;;;;11.49;37.62;98528.59;4454246;32;33640;-81
2022/04/05 00:37:48;;;;;;;;;;;;;;;11.41;38.01;98530.34;4460593;32;34998;-84
2022/04/05 00:40:16;;;;;;;;;;;;;;;11.65;37.53;98534.62;4459476;32;34508;-82
2022/04/05 00:42:43;;;;;;;;;;;;;;;11.66;37.66;98510.38;4448165;32;34395;-83
2022/04/05 00:45:10;;;;;;;;;;;;;;;11.95;37.54;98510.34;4449213;32;31916;-85
2022/04/05 00:47:38;;;;;;;;;;;;;;;11.77;37.91;98502.56;4467721;32;34123;-84
2022/04/05 00:50:05;;;;;;;;;;;;;;;11.83;37.91;98497.38;4467394;32;34092;-81
2022/04/05 00:52:33;;;;;;;;;;;;;;;11.75;37.84;98496.53;4466910;32;34668;-82
2022/04/05 00:55:00;;;;;;;;;;;;;;;11.95;37.54;98505.16;4467914;32;34469;-81
2022/04/05 00:57:27;;;;;;;;;;;;;;;11.73;38.12;98488.72;4446559;32;34374;-84
2022/04/05 00:59:59;;;;;;;;;;;;;;;11.93;37.93;98488.69;4442482;32;34158;-81
2022/04/05 01:02:28;;;;;;;;;;;;;;;12.03;37.70;98480.00;4454128;32;34496;-81
2022/04/05 01:04:55;;;;;;;;;;;;;;;11.69;38.49;98489.63;4468193;32;34510;-82
2022/04/05 01:07:23;;;;;;;;;;;;;;;12.02;38.05;98482.63;4455853;32;35112;-83
2022/04/05 01:09:54;;;;;;;;;;;;;;;11.78;38.62;98486.13;4449647;32;35227;-84
2022/04/05 01:12:21;;;;;;;;;;;;;;;11.94;38.36;98490.44;4458040;32;34406;-84
2022/04/05 01:15:07;;;;;;;;;;;;;;;12.06;38.29;98487.78;4447118;32;34310;-83
2022/04/05 01:17:35;;;;;;;;;;;;;;;12.41;37.70;98489.34;4449784;32;35107;-81
2022/04/05 01:20:02;;;;;;;;;;;;;;;12.51;37.64;98487.59;4462781;32;35255;-83
2022/04/05 01:22:30;;;;;;;;;;;;;;;12.48;37.74;98488.47;4456347;32;35414;-84
2022/04/05 01:24:57;;;;;;;;;;;;;;;12.54;37.69;98488.44;4458712;32;34278;-83
2022/04/05 01:27:27;;;;;;;;;;;;;;;12.41;37.84;98490.22;4459954;32;34046;-82
2022/04/05 01:29:55;;;;;;;;;;;;;;;12.73;37.28;98483.09;4456996;32;34590;-81
2022/04/05 01:32:23;;;;;;;;;;;;;;;12.80;37.20;98479.56;4456087;32;34057;-81
2022/04/05 01:34:50;;;;;;;;;;;;;;;12.77;37.19;98477.88;4457629;32;33346;-84
2022/04/05 01:37:17;;;;;;;;;;;;;;;12.79;37.15;98468.31;4455589;32;36707;-81
2022/04/05 01:39:44;;;;;;;;;;;;;;;12.63;37.55;98477.97;4454863;32;34010;-81
2022/04/05 01:42:12;;;;;;;;;;;;;;;12.50;37.65;98484.13;4460987;32;34252;-80
2022/04/05 01:44:41;;;;;;;;;;;;;;;12.77;37.26;98485.69;4450997;32;33233;-81
2022/04/05 01:47:09;;;;;;;;;;;;;;;12.90;37.12;98486.44;4440699;32;34627;-85
2022/04/05 01:49:37;;;;;;;;;;;;;;;12.49;37.88;98479.78;4453866;32;34487;-82
2022/04/05 01:52:04;;;;;;;;;;;;;;;12.82;37.33;98483.91;4452046;32;34500;-83
2022/04/05 01:54:31;;;;;;;;;;;;;;;12.58;37.54;98477.13;4460458;32;34111;-82
2022/04/05 01:56:59;;;;;;;;;;;;;;;12.69;37.27;98473.56;4455280;32;33908;-82
2022/04/05 01:59:27;;;;;;;;;;;;;;;12.58;37.38;98477.13;4452506;32;34043;-81
2022/04/05 02:01:55;;;;;;;;;;;;;;;12.28;37.85;98479.91;4452738;32;34107;-81
2022/04/05 02:04:24;;;;;;;;;;;;;;;12.79;37.09;98473.50;4457331;32;33732;-82
2022/04/05 02:06:51;;;;;;;;;;;;;;;12.34;37.86;98472.06;4452916;32;34068;-81
2022/04/05 02:09:19;;;;;;;;;;;;;;;12.41;37.98;98460.75;4467943;32;34205;-82
2022/04/05 02:11:47;;;;;;;;;;;;;;;12.58;37.86;98465.88;4458606;32;34589;-82
2022/04/05 02:14:17;;;;;;;;;;;;;;;12.71;37.79;98456.25;4445081;32;34433;-81
2022/04/05 02:16:44;;;;;;;;;;;;;;;12.14;38.73;98460.03;4452536;32;34072;-81
2022/04/05 02:19:12;;;;;;;;;;;;;;;12.22;38.38;98469.53;4452903;32;33582;-83
2022/04/05 02:21:40;;;;;;;;;;;;;;;12.66;37.77;98458.88;4453673;32;35079;-80
2022/04/05 02:24:07;;;;;;;;;;;;;;;12.73;37.81;98470.09;4466102;32;34362;-82
2022/04/05 02:26:35;;;;;;;;;;;;;;;12.52;38.47;98452.91;4453474;32;34197;-82
2022/04/05 02:29:03;;;;;;;;;;;;;;;12.08;39.10;98467.00;4466167;32;34523;-82
2022/04/05 02:31:31;;;;;;;;;;;;;;;12.06;39.37;98459.22;4460154;32;33890;-83
2022/04/05 02:34:00;;;;;;;;;;;;;;;12.04;38.82;98453.16;4452361;32;33765;-81
2022/04/05 02:36:28;;;;;;;;;;;;;;;12.06;39.21;98461.81;4465734;32;33984;-81
2022/04/05 02:38:56;;;;;;;;;;;;;;;12.30;38.83;98454.75;4460904;32;34984;-82
2022/04/05 02:41:24;;;;;;;;;;;;;;;12.27;38.83;98454.78;4452095;32;34522;-84
2022/04/05 02:43:51;;;;;;;;;;;;;;;12.40;38.87;98441.72;4466644;32;33329;-82
2022/04/05 02:46:19;;;;;;;;;;;;;;;12.58;38.59;98437.28;4457863;32;34574;-82
2022/04/05 02:48:48;;;;;;;;;;;;;;;12.58;38.73;98435.53;4437999;32;34075;-83
2022/04/05 02:51:16;;;;;;;;;;;;;;;12.46;38.24;98435.59;4468058;32;34123;-82
2022/04/05 02:53:44;;;;;;;;;;;;;;;12.61;38.27;98438.13;4467794;32;34041;-81
2022/04/05 02:56:13;;;;;;;;;;;;;;;12.77;38.01;98425.84;4463577;32;35051;-82
2022/04/05 02:58:41;;;;;;;;;;;;;;;12.67;38.36;98424.19;4467430;32;34374;-83
2022/04/05 03:01:08;;;;;;;;;;;;;;;12.79;38.34;98423.22;4456936;32;34143;-82
2022/04/05 03:03:36;;;;;;;;;;;;;;;12.96;38.05;98420.50;4452324;32;33265;-82
2022/04/05 03:06:04;;;;;;;;;;;;;;;13.12;37.65;98420.34;4460535;32;33982;-82
2022/04/05 03:08:31;;;;;;;;;;;;;;;12.89;37.83;98427.50;4452029;32;34524;-82
2022/04/05 03:11:01;;;;;;;;;;;;;;;12.82;38.11;98415.41;4453181;32;33810;-81
2022/04/05 03:13:29;;;;;;;;;;;;;;;12.87;38.02;98416.22;4467562;32;33700;-82
2022/04/05 03:15:56;;;;;;;;;;;;;;;12.71;38.39;98406.81;4457212;32;34201;-82
2022/04/05 03:18:24;;;;;;;;;;;;;;;12.44;38.92;98407.91;4452003;32;33722;-83
2022/04/05 03:20:52;;;;;;;;;;;;;;;12.86;38.19;98404.09;4460933;32;35203;-81
2022/04/05 03:23:21;;;;;;;;;;;;;;;12.77;38.40;98389.44;4467120;32;34306;-82
2022/04/05 03:25:49;;;;;;;;;;;;;;;13.03;37.60;98397.03;4458122;32;34964;-82
2022/04/05 03:28:18;;;;;;;;;;;;;;;12.72;38.41;98395.53;4460253;32;34071;-82
2022/04/05 03:30:47;;;;;;;;;;;;;;;13.00;37.97;98401.37;4466780;32;32915;-86
2022/04/05 03:33:15;;;;;;;;;;;;;;;12.78;38.33;98405.91;4467070;32;34590;-82
2022/04/05 03:35:42;;;;;;;;;;;;;;;13.15;37.71;98396.03;4459553;32;35095;-82
2022/04/05 03:38:10;;;;;;;;;;;;;;;13.35;37.34;98403.66;4451834;32;34813;-82
2022/04/05 03:40:39;;;;;;;;;;;;;;;13.12;37.72;98402.13;4445641;32;34922;-83
2022/04/05 03:43:12;;;;;;;;;;;;;;;13.06;37.93;98391.75;4438304;32;33699;-83
2022/04/05 03:45:40;;;;;;;;;;;;;;;13.21;37.71;98395.09;4458509;32;33871;-81
2022/04/05 03:48:07;;;;;;;;;;;;;;;13.33;37.55;98395.00;4466992;32;35243;-84
2022/04/05 03:50:35;;;;;;;;;;;;;;;13.37;37.41;98392.37;4466422;32;35130;-81
2022/04/05 03:53:03;;;;;;;;;;;;;;;13.07;38.13;98403.91;4467596;32;33351;-82
2022/04/05 03:55:31;;;;;;;;;;;;;;;13.29;37.65;98396.75;4462508;32;35047;-82
2022/04/05 03:57:59;;;;;;;;;;;;;;;12.97;38.13;98397.06;4467135;32;35275;-81
2022/04/05 04:00:27;;;;;;;;;;;;;;;13.03;38.13;98393.53;4457449;32;34162;-81
2022/04/05 04:02:55;;;;;;;;;;;;;;;13.28;37.75;98391.59;4451836;32;33619;-82
2022/04/05 04:05:22;;;;;;;;;;;;;;;13.14;37.83;98392.56;4455800;32;34844;-81
2022/04/05 04:07:49;;;;;;;;;;;;;;;13.32;37.52;98393.28;4462369;32;33794;-81
2022/04/05 04:10:18;;;;;;;;;;;;;;;13.40;37.29;98383.63;4465984;32;35012;-82
2022/04/05 04:12:51;;;;;;;;;;;;;;;13.20;37.66;98393.37;4460143;32;33576;-81
2022/04/05 04:15:19;;;;;;;;;;;;;;;13.04;37.90;98388.31;4453764;32;35097;-83
2022/04/05 04:17:47;;;;;;;;;;;;;;;13.01;37.88;98385.75;4460757;32;34843;-82
2022/04/05 04:20:14;;;;;;;;;;;;;;;13.13;37.67;98397.78;4462841;32;34297;-82
2022/04/05 04:22:42;;;;;;;;;;;;;;;12.82;37.70;98390.25;4456067;32;34264;-83
2022/04/05 04:25:09;;;;;;;;;;;;;;;12.85;38.09;98392.84;4457376;32;34146;-81
2022/04/05 04:27:36;;;;;;;;;;;;;;;12.72;38.52;98399.00;4458269;32;35218;-80
2022/04/05 04:30:04;;;;;;;;;;;;;;;12.95;38.08;98393.59;4459062;32;34831;-82
2022/04/05 04:32:31;;;;;;;;;;;;;;;12.96;38.44;98390.13;4455148;32;34357;-84
2022/04/05 04:34:58;;;;;;;;;;;;;;;12.90;38.05;98395.38;4453905;32;34213;-83
2022/04/05 04:37:26;;;;;;;;;;;;;;;12.95;38.44;98397.94;4460943;32;34441;-80
2022/04/05 04:39:53;;;;;;;;;;;;;;;12.82;38.68;98397.19;4458494;32;34433;-82
2022/04/05 04:42:20;;;;;;;;;;;;;;;12.85;38.21;98400.63;4462779;32;32955;-82
2022/04/05 04:44:48;;;;;;;;;;;;;;;12.67;39.26;98400.78;4450439;32;34305;-82
2022/04/05 04:47:15;;;;;;;;;;;;;;;13.22;38.28;98399.41;4453307;32;35397;-82
2022/04/05 04:49:43;;;;;;;;;;;;;;;13.19;38.31;98400.31;4462001;32;34515;-83
2022/04/05 04:52:10;;;;;;;;;;;;;;;13.07;37.41;98400.44;4465330;32;32436;-82
2022/04/05 04:54:37;;;;;;;;;;;;;;;12.86;38.91;98404.09;4464928;32;33594;-82
2022/04/05 04:57:05;;;;;;;;;;;;;;;12.90;38.79;98411.00;4462612;32;33550;-82
2022/04/05 04:59:32;;;;;;;;;;;;;;;13.00;38.75;98401.37;4453794;32;33530;-81
2022/04/05 05:01:59;;;;;;;;;;;;;;;13.43;38.21;98398.38;4457817;32;34219;-81
2022/04/05 05:04:27;;;;;;;;;;;;;;;13.45;37.40;98397.50;4452697;32;34166;-82
2022/04/05 05:06:54;;;;;;;;;;;;;;;12.95;37.54;98396.19;4452672;32;34360;-82
2022/04/05 05:09:21;;;;;;;;;;;;;;;13.22;36.65;98399.41;4452587;32;34558;-82
2022/04/05 05:11:49;;;;;;;;;;;;;;;13.66;35.66;98395.50;4452203;32;34473;-82
2022/04/05 05:14:16;;;;;;;;;;;;;;;13.13;36.65;98390.81;4467070;32;34159;-82
2022/04/05 05:16:43;;;;;;;;;;;;;;;13.21;36.46;98392.50;4460409;32;34426;-83
2022/04/05 05:19:10;;;;;;;;;;;;;;;13.65;36.29;98393.78;4468204;32;34336;-83
2022/04/05 05:21:38;;;;;;;;;;;;;;;13.20;36.63;98393.37;4468704;32;33217;-81
2022/04/05 05:24:09;;;;;;;;;;;;;;;13.32;36.61;98388.06;4467992;32;35136;-82
2022/04/05 05:26:36;;;;;;;;;;;;;;;13.17;36.78;98388.19;4440898;32;35049;-83
2022/04/05 05:29:04;;;;;;;;;;;;;;;13.14;36.72;98384.75;4468083;32;35206;-83
2022/04/05 05:31:37;;;;;;;;;;;;;;;13.82;35.40;98395.28;4450337;32;33646;-82
2022/04/05 05:34:04;;;;;;;;;;;;;;;13.66;35.61;98396.34;4456836;32;34976;-82
2022/04/05 05:36:31;;;;;;;;;;;;;;;13.19;36.75;98387.31;4452574;32;35374;-83
2022/04/05 05:38:58;;;;;;;;;;;;;;;13.31;36.29;98388.97;4438683;32;34603;-83
2022/04/05 05:41:26;;;;;;;;;;;;;;;13.07;36.55;98395.25;4452327;32;34261;-83
2022/04/05 05:43:53;;;;;;;;;;;;;;;12.87;36.86;98405.81;4452512;32;34024;-83
2022/04/05 05:46:20;;;;;;;;;;;;;;;13.02;36.70;98397.88;4452432;32;34345;-83
2022/04/05 05:48:47;;;;;;;;;;;;;;;13.41;35.95;98388.00;4452578;32;34591;-83
2022/04/05 05:51:14;;;;;;;;;;;;;;;13.01;36.24;98398.75;4452596;32;33374;-83
2022/04/05 05:53:42;;;;;;;;;;;;;;;13.58;35.54;98399.06;4452888;32;34035;-83
2022/04/05 05:56:09;;;;;;;;;;;;;;;13.63;35.28;98410.28;4452357;32;35068;-83
2022/04/05 05:58:36;;;;;;;;;;;;;;;12.08;37.96;98410.69;4452637;32;34256;-85
2022/04/05 06:01:04;;;;;;;;;;;;;;;13.22;36.60;98409.81;4452627;32;34227;-83
2022/04/05 06:03:31;;;;;;;;;;;;;;;13.43;36.62;98417.47;4438369;32;34357;-83
2022/04/05 06:05:58;;;;;;;;;;;;;;;13.82;35.27;98417.88;4452476;32;34397;-84
2022/04/05 06:08:26;;;;;;;;;;;;;;;12.63;37.35;98415.56;4452262;32;34361;-83
2022/04/05 06:10:53;;;;;;;;;;;;;;;13.88;35.14;98413.44;4452220;32;33569;-83
2022/04/05 06:13:21;;;;;;;;;;;;;;;13.18;36.85;98426.34;4451995;32;33998;-83
2022/04/05 06:15:49;;;;;;;;;;;;;;;14.00;34.96;98425.47;4452394;32;34795;-84
2022/04/05 06:18:16;;;;;;;;;;;;;;;13.00;36.80;98428.25;4438112;32;35162;-85
2022/04/05 06:20:43;;;;;;;;;;;;;;;13.06;37.17;98433.41;4452404;32;32586;-83
2022/04/05 06:23:10;;;;;;;;;;;;;;;13.50;36.02;98437.34;4452456;32;34066;-85
2022/04/05 06:25:38;;;;;;;;;;;;;;;12.85;37.15;98434.47;4452148;32;34446;-85
2022/04/05 06:28:07;;;;;;;;;;;;;;;12.60;37.82;98423.37;4452251;32;34264;-86
2022/04/05 06:30:35;;;;;;;;;;;;;;;13.14;37.26;98416.00;4438443;32;33588;-83
2022/04/05 06:33:23;;;;;;;;;;;;;;;13.61;35.53;98411.19;4452151;32;35026;-85
2022/04/05 06:35:51;;;;;;;;;;;;;;;13.67;35.86;98415.44;4452297;32;34812;-83
2022/04/05 06:38:19;;;;;;;;;;;;;;;12.46;38.22;98421.72;4452132;32;35315;-83
2022/04/05 06:40:46;;;;;;;;;;;;;;;12.13;38.80;98408.09;4438249;32;33622;-87
2022/04/05 06:43:14;;;;;;;;;;;;;;;13.65;36.26;98407.66;4438513;32;34192;-83
2022/04/05 06:45:43;;;;;;;;;;;;;;;12.51;38.25;98417.38;4452241;32;34359;-84
2022/04/05 06:48:10;;;;;;;;;;;;;;;12.52;38.48;98425.16;4452539;32;34005;-87
2022/04/05 06:50:37;;;;;;;;;;;;;;;12.99;37.90;98417.84;4438351;32;33761;-86
2022/04/05 06:53:05;;;;;;;;;;;;;;;13.67;36.51;98416.31;4452291;32;34294;-83
2022/04/05 06:55:32;;;;;;;;;;;;;;;13.79;36.61;98415.31;4452242;32;35092;-87
2022/04/05 06:58:00;;;;;;;;;;;;;;;14.41;35.19;98413.59;4438268;32;34556;-83
2022/04/05 07:00:27;;;;;;;;;;;;;;;15.12;34.27;98402.06;4438101;32;32919;-83
2022/04/05 07:02:55;;;;;;;;;;;;;;;14.76;34.29;98409.63;4438662;32;33358;-83
2022/04/05 07:05:23;;;;;;;;;;;;;;;13.67;37.30;98410.25;4452303;32;34991;-83
2022/04/05 07:07:50;;;;;;;;;;;;;;;14.56;35.82;98410.81;4451665;32;34191;-83
2022/04/05 07:10:18;;;;;;;;;;;;;;;14.63;35.02;98402.88;4452387;32;33179;-83
2022/04/05 07:12:46;;;;;;;;;;;;;;;14.66;34.32;98414.13;4451965;32;34040;-84
2022/04/05 07:15:13;;;;;;;;;;;;;;;14.58;34.84;98414.25;4451957;32;35205;-84
2022/04/05 07:17:40;;;;;;;;;;;;;;;14.49;34.80;98417.00;4438341;32;34103;-83
2022/04/05 07:20:28;;;;;;;;;;;;;;;12.73;38.11;98418.06;4451860;32;34035;-83
2022/04/05 07:22:55;;;;;;;;;;;;;;;12.12;39.56;98422.81;4451904;32;33806;-84
2022/04/05 07:25:22;;;;;;;;;;;;;;;12.43;39.61;98425.25;4450821;32;35233;-87
2022/04/05 07:27:51;;;;;;;;;;;;;;;14.12;36.14;98412.25;4451771;32;34813;-83
2022/04/05 07:30:19;;;;;;;;;;;;;;;14.03;36.35;98404.56;4438125;32;33451;-84
2022/04/05 07:32:47;;;;;;;;;;;;;;;14.71;35.45;98414.91;4437749;32;34122;-83
2022/04/05 07:35:14;;;;;;;;;;;;;;;14.68;35.96;98406.28;4437876;32;34584;-83
2022/04/05 07:37:42;;;;;;;;;;;;;;;14.81;35.68;98405.19;4437549;32;34375;-83
2022/04/05 07:40:10;;;;;;;;;;;;;;;14.35;36.62;98398.03;4437562;32;32691;-84
2022/04/05 07:42:39;;;;;;;;;;;;;;;15.05;35.82;98399.56;4437971;32;34365;-87
2022/04/05 07:45:07;;;;;;;;;;;;;;;14.54;36.38;98396.03;4451705;32;35146;-83
2022/04/05 07:47:35;;;;;;;;;;;;;;;15.06;36.13;98387.38;4451504;32;34392;-86
2022/04/05 07:50:03;;;;;;;;;;;;;;;14.99;36.17;98386.59;4451537;32;33485;-87
2022/04/05 07:52:30;;;;;;;;;;;;;;;14.89;36.55;98400.72;4451526;32;34855;-83
2022/04/05 07:54:57;;;;;;;;;;;;;;;14.88;36.73;98412.03;4451564;32;33914;-83
2022/04/05 07:57:24;;;;;;;;;;;;;;;14.65;37.13;98403.72;4451639;32;34831;-83
2022/04/05 07:59:52;;;;;;;;;;;;;;;14.73;36.29;98404.44;4451733;32;32800;-83
2022/04/05 08:02:19;;;;;;;;;;;;;;;14.72;35.85;98402.72;4451389;32;34389;-83
2022/04/05 08:04:59;;;;;;;;;;;;;;;14.36;36.83;98410.22;4451516;32;34409;-87
2022/04/05 08:07:27;;;;;;;;;;;;;;;14.86;35.59;98413.81;4451135;32;34508;-83
2022/04/05 08:09:54;;;;;;;;;;;;;;;14.54;36.77;98415.16;4451226;32;32989;-83
2022/04/05 08:12:21;;;;;;;;;;;;;;;14.45;35.56;98402.25;4437161;32;33490;-83
2022/04/05 08:14:49;;;;;;;;;;;;;;;14.80;34.53;98406.94;4451235;32;34133;-83
2022/04/05 08:17:16;;;;;;;;;;;;;;;15.85;33.47;98397.22;4451174;32;34300;-84
2022/04/05 08:19:43;;;;;;;;;;;;;;;15.88;33.93;98398.00;4451379;32;33780;-87
2022/04/05 08:22:10;;;;;;;;;;;;;;;15.16;34.70;98395.91;4451058;32;34952;-84
2022/04/05 08:24:37;;;;;;;;;;;;;;;14.87;36.55;98414.66;4436966;32;35136;-83
2022/04/05 08:27:05;;;;;;;;;;;;;;;15.50;35.33;98402.22;4451253;32;34595;-84
2022/04/05 08:29:39;;;;;;;;;;;;;;;15.87;34.44;98401.50;4451305;32;34459;-83
2022/04/05 08:32:07;;;;;;;;;;;;;;;15.74;34.11;98411.34;4451196;32;34147;-83
2022/04/05 08:34:35;;;;;;;;;;;;;;;16.03;34.25;98413.38;4451493;32;35282;-84
2022/04/05 08:37:02;;;;;;;;;;;;;;;15.70;34.71;98403.59;4452454;32;35372;-83
2022/04/05 08:39:30;;;;;;;;;;;;;;;16.58;33.33;98406.03;4453293;32;34031;-83
2022/04/05 08:41:57;;;;;;;;;;;;;;;15.27;34.18;98404.41;4453043;32;34122;-84
2022/04/05 08:44:24;;;;;;;;;;;;;;;15.50;32.41;98403.97;4438882;32;35371;-83
2022/04/05 08:46:52;;;;;;;;;;;;;;;15.64;32.15;98403.69;4439170;32;35210;-83
2022/04/05 08:49:19;;;;;;;;;;;;;;;15.05;32.97;98403.91;4453300;32;33290;-88
2022/04/05 08:51:46;;;;;;;;;;;;;;;15.47;33.06;98399.66;4439039;32;35272;-85
2022/04/05 08:54:13;;;;;;;;;;;;;;;16.16;32.64;98393.03;4453499;32;34229;-83
2022/04/05 08:56:41;;;;;;;;;;;;;;;15.79;32.60;98399.03;4453151;32;34437;-83
2022/04/05 08:59:08;;;;;;;;;;;;;;;15.76;32.46;98400.87;4453050;32;33395;-85
2022/04/05 09:01:35;;;;;;;;;;;;;;;15.83;32.44;98394.59;4453118;32;34373;-83
2022/04/05 09:04:04;;;;;;;;;;;;;;;15.87;31.53;98385.81;4452877;32;34257;-84
2022/04/05 09:06:32;;;;;;;;;;;;;;;15.86;32.11;98396.31;4452713;32;35047;-83
2022/04/05 09:09:06;;;;;;;;;;;;;;;16.45;31.39;98389.75;4452939;32;34535;-88
2022/04/05 09:11:34;;;;;;;;;;;;;;;14.97;34.04;98397.97;4438989;32;34456;-83
2022/04/05 09:14:03;;;;;;;;;;;;;;;16.16;32.17;98400.03;4438944;32;34119;-83
2022/04/05 09:16:32;;;;;;;;;;;;;;;16.07;32.60;98395.88;4453061;32;34930;-87
2022/04/05 09:19:19;;;;;;;;;;;;;;;15.92;32.40;98394.44;4453232;32;33578;-84
2022/04/05 09:21:51;;;;;;;;;;;;;;;16.35;32.72;98390.88;4453113;32;34270;-83
2022/04/05 09:24:18;;;;;;;;;;;;;;;16.44;32.54;98405.47;4452942;32;34050;-83
2022/04/05 09:26:48;;;;;;;;;;;;;;;15.92;33.67;98399.66;4452844;32;33492;-83
2022/04/05 09:29:16;;;;;;;;;;;;;;;15.95;34.10;98402.22;4452698;32;33529;-83
2022/04/05 09:31:48;;;;;;;;;;;;;;;15.43;35.63;98387.56;4452637;32;34918;-83
2022/04/05 09:34:22;;;;;;;;;;;;;;;15.68;34.66;98400.16;4452585;32;34922;-83
2022/04/05 09:36:49;;;;;;;;;;;;;;;15.84;34.48;98395.50;4452773;32;34188;-83
2022/04/05 09:39:17;;;;;;;;;;;;;;;15.80;34.77;98394.69;4452638;32;34398;-83
2022/04/05 09:41:48;;;;;;;;;;;;;;;15.52;35.74;98403.03;4452536;32;34254;-83
2022/04/05 09:44:26;;;;;;;;;;;;;;;15.86;35.57;98405.00;4452854;32;34905;-83
2022/04/05 09:47:02;;;;;;;;;;;;;;;16.05;35.24;98401.09;4452226;32;34618;-84
2022/04/05 09:49:31;;;;;;;;;;;;;;;16.64;34.45;98405.03;4452534;32;33059;-83
2022/04/05 09:51:58;;;;;;;;;;;;;;;16.41;34.23;98406.44;4452763;32;34770;-83
2022/04/05 09:54:29;;;;;;;;;;;;;;;16.29;34.36;98404.09;4452968;32;34586;-87
2022/04/05 09:57:14;;;;;;;;;;;;;;;16.33;33.95;98405.75;4452866;32;34311;-83
2022/04/05 09:59:43;;;;;;;;;;;;;;;16.22;33.19;98394.66;4452688;32;33554;-83
2022/04/05 10:02:14;;;;;;;;;;;;;;;16.28;32.79;98394.50;4438302;32;34859;-83
2022/04/05 10:05:00;;;;;;;;;;;;;;;16.46;32.44;98395.84;4452500;32;34885;-82
2022/04/05 10:07:28;;;;;;;;;;;;;;;16.34;32.69;98397.00;4452158;32;34547;-83
2022/04/05 10:09:59;;;;;;;;;;;;;;;16.21;33.17;98396.44;4452356;32;34331;-88
2022/04/05 10:12:29;;;;;;;;;;;;;;;15.86;33.61;98405.00;4438424;32;34021;-86
2022/04/05 10:14:56;;;;;;;;;;;;;;;16.05;32.75;98398.50;4452266;32;35459;-83
2022/04/05 10:17:24;;;;;;;;;;;;;;;16.16;33.38;98400.87;4452266;32;33814;-83
2022/04/05 10:19:51;;;;;;;;;;;;;;;16.07;33.39;98389.78;4452327;32;34324;-84
2022/04/05 10:22:19;;;;;;;;;;;;;;;15.79;33.73;98393.81;4438231;32;34886;-83
2022/04/05 10:24:47;;;;;;;;;;;;;;;16.20;33.65;98393.81;4438448;32;35344;-88
2022/04/05 10:27:14;;;;;;;;;;;;;;;16.53;34.14;98398.28;4438644;32;34504;-83
2022/04/05 10:29:42;;;;;;;;;;;;;;;16.20;34.53;98394.69;4438203;32;33732;-84
2022/04/05 10:32:22;;;;;;;;;;;;;;;16.47;34.06;98387.97;4452179;32;33933;-83
2022/04/05 10:34:57;;;;;;;;;;;;;;;15.35;35.53;98385.97;4452474;32;34347;-84
2022/04/05 10:37:35;;;;;;;;;;;;;;;16.26;34.42;98385.84;4438309;32;34945;-88
2022/04/05 10:40:02;;;;;;;;;;;;;;;16.18;35.16;98388.62;4452320;32;33789;-83
2022/04/05 10:42:41;;;;;;;;;;;;;;;17.22;33.21;98382.66;4452140;32;34141;-83
2022/04/05 10:45:33;;;;;;;;;;;;;;;16.57;34.10;98390.38;4452121;32;34068;-85
2022/04/05 10:48:00;;;;;;;;;;;;;;;15.86;35.01;98388.47;4452503;32;34633;-83
2022/04/05 10:51:00;;;;;;;;;;;;;;;16.89;32.04;98386.97;4452009;32;34108;-83
2022/04/05 10:53:34;;;;;;;;;;;;;;;17.47;31.59;98382.84;4452209;32;35133;-83
2022/04/05 10:56:09;;;;;;;;;;;;;;;16.48;32.98;98384.47;4452231;32;35257;-83
2022/04/05 10:58:52;;;;;;;;;;;;;;;15.81;34.25;98392.03;4452241;32;34315;-84
2022/04/05 11:01:23;;;;;;;;;;;;;;;15.91;33.66;98378.75;4452183;32;34469;-85
2022/04/05 11:04:17;;;;;;;;;;;;;;;16.47;31.86;98382.72;4438225;32;34796;-82
2022/04/05 11:07:03;;;;;;;;;;;;;;;16.12;31.93;98374.84;4452115;32;34377;-83
2022/04/05 11:09:33;;;;;;;;;;;;;;;16.03;33.53;98379.38;4452086;32;34419;-84
2022/04/05 11:12:02;;;;;;;;;;;;;;;16.37;32.87;98383.00;4451978;32;33311;-78
2022/04/05 11:14:38;;;;;;;;;;;;;;;16.76;32.01;98370.75;4451875;32;35085;-87
2022/04/05 11:17:07;;;;;;;;;;;;;;;17.71;31.53;98381.28;4452122;32;34456;-83
2022/04/05 11:19:35;;;;;;;;;;;;;;;17.34;32.09;98369.22;4452072;32;35180;-82
2022/04/05 11:22:03;;;;;;;;;;;;;;;18.26;30.26;98378.81;4451943;32;34151;-84
2022/04/05 11:24:49;;;;;;;;;;;;;;;17.17;30.78;98381.91;4437787;32;34915;-83
2022/04/05 11:27:25;;;;;;;;;;;;;;;16.60;31.69;98374.59;4451914;32;35295;-82
2022/04/05 11:30:11;;;;;;;;;;;;;;;16.63;31.43;98388.47;4451498;32;34673;-82
2022/04/05 11:32:38;;;;;;;;;;;;;;;17.47;30.55;98382.84;4452176;32;33661;-83
2022/04/05 11:35:06;;;;;;;;;;;;;;;17.02;31.67;98384.03;4451755;32;33960;-82
2022/04/05 11:37:34;;;;;;;;;;;;;;;15.79;34.24;98393.81;4437922;32;34876;-83
2022/04/05 11:40:01;;;;;;;;;;;;;;;16.24;33.78;98385.87;4438058;32;35133;-87
2022/04/05 11:42:34;;;;;;;;;;;;;;;16.56;33.34;98392.13;4451925;32;33543;-83
2022/04/05 11:45:01;;;;;;;;;;;;;;;16.22;34.01;98402.50;4452259;32;34094;-84
2022/04/05 11:47:28;;;;;;;;;;;;;;;15.68;36.56;98397.53;4452190;32;35005;-83
2022/04/05 11:49:56;;;;;;;;;;;;;;;16.33;35.28;98390.06;4451880;32;34133;-84
2022/04/05 11:52:27;;;;;;;;;;;;;;;15.66;36.58;98396.72;4452183;32;33436;-85
2022/04/05 11:57:44;;;;;;;;;;;;;;;14.96;38.84;98406.66;4451484;32;34138;-83
2022/04/05 12:00:11;;;;;;;;;;;;;;;16.03;37.55;98405.53;4451406;32;34346;-84
2022/04/05 12:02:39;;;;;;;;;;;;;;;15.38;38.22;98404.19;4437715;32;33605;-83
2022/04/05 12:05:06;;;;;;;;;;;;;;;15.55;38.04;98400.37;4451459;32;34869;-83
2022/04/05 12:07:34;;;;;;;;;;;;;;;15.84;37.64;98404.19;4451224;32;34060;-86
2022/04/05 12:10:01;;;;;;;;;;;;;;;16.49;37.06;98396.66;4437746;32;34352;-84
2022/04/05 12:12:29;;;;;;;;;;;;;;;16.60;36.08;98398.16;4442241;32;33634;-84
2022/04/05 12:14:56;;;;;;;;;;;;;;;16.86;35.82;98395.78;4456493;32;33639;-84
2022/04/05 12:17:24;;;;;;;;;;;;;;;15.94;37.31;98394.38;4442596;32;34039;-83
2022/04/05 12:19:52;;;;;;;;;;;;;;;16.54;36.84;98391.28;4456541;32;34762;-83
2022/04/05 12:22:19;;;;;;;;;;;;;;;16.42;36.03;98384.59;4442349;32;33446;-84
2022/04/05 12:24:51;;;;;;;;;;;;;;;16.39;35.87;98389.03;4456474;32;34284;-84
2022/04/05 12:27:20;;;;;;;;;;;;;;;16.78;35.47;98395.09;4456394;32;35282;-83
2022/04/05 12:29:47;;;;;;;;;;;;;;;16.25;35.86;98389.34;4442499;32;34528;-83
2022/04/05 12:32:21;;;;;;;;;;;;;;;16.64;34.99;98386.72;4456438;32;34445;-84
2022/04/05 12:34:49;;;;;;;;;;;;;;;16.67;35.55;98384.03;4456278;32;34149;-83
2022/04/05 12:37:16;;;;;;;;;;;;;;;15.72;37.19;98387.00;4441997;32;35054;-86
2022/04/05 12:39:44;;;;;;;;;;;;;;;16.94;34.88;98372.03;4442117;32;34293;-83
2022/04/05 12:42:12;;;;;;;;;;;;;;;16.00;36.49;98378.59;4455963;32;34420;-86
2022/04/05 12:44:40;;;;;;;;;;;;;;;16.69;35.10;98376.97;4456026;32;34537;-85
2022/04/05 12:47:16;;;;;;;;;;;;;;;16.29;36.31;98377.94;4456044;32;34195;-84
2022/04/05 12:49:47;;;;;;;;;;;;;;;17.00;35.26;98372.72;4455999;32;35149;-84
2022/04/05 12:52:17;;;;;;;;;;;;;;;15.97;36.67;98382.12;4456077;32;33545;-83
2022/04/05 12:54:54;;;;;;;;;;;;;;;16.49;35.02;98380.94;4456136;32;33112;-83
2022/04/05 12:57:21;;;;;;;;;;;;;;;16.63;35.87;98377.13;4455884;32;33740;-83
2022/04/05 12:59:50;;;;;;;;;;;;;;;15.76;37.04;98366.91;4431131;32;786612;-83